createdAt,value
2022-11-18T00:02:02.857Z,19.03
2022-11-18T00:04:57.386Z,19.03
2022-11-18T00:07:52.433Z,19.02
2022-11-18T00:10:46.929Z,19.02
2022-11-18T00:13:59.664Z,19.01
2022-11-18T00:16:55.971Z,19.00
2022-11-18T00:19:50.442Z,18.99
2022-11-18T00:22:44.976Z,18.98
2022-11-18T00:25:40.042Z,18.98
2022-11-18T00:28:35.170Z,18.96
2022-11-18T00:31:29.698Z,18.95
2022-11-18T00:34:24.182Z,18.94
2022-11-18T00:37:18.666Z,18.93
2022-11-18T00:40:15.144Z,18.93
2022-11-18T00:43:09.944Z,18.92
2022-11-18T00:46:04.495Z,18.91
2022-11-18T00:48:58.947Z,18.91
2022-11-18T00:51:53.657Z,18.90
2022-11-18T00:54:48.199Z,18.89
2022-11-18T00:57:42.659Z,18.88
2022-11-18T01:00:37.258Z,18.87
2022-11-18T01:03:32.388Z,18.87
2022-11-18T01:06:26.818Z,18.86
2022-11-18T01:09:21.240Z,18.87
2022-11-18T01:12:33.997Z,18.86
2022-11-18T01:15:28.466Z,18.85
2022-11-18T01:18:24.412Z,18.85
2022-11-18T01:21:19.174Z,18.85
2022-11-18T01:24:13.666Z,18.84
2022-11-18T01:27:08.195Z,18.84
2022-11-18T01:30:02.774Z,18.84
2022-11-18T01:32:57.219Z,18.84
2022-11-18T01:35:52.111Z,18.84
2022-11-18T01:38:46.847Z,18.84
2022-11-18T01:41:41.761Z,18.84
2022-11-18T01:45:23.416Z,18.85
2022-11-18T01:48:20.611Z,18.84
2022-11-18T01:51:17.578Z,18.84
2022-11-18T01:54:16.633Z,18.85
2022-11-18T01:57:13.728Z,18.85
2022-11-18T02:00:12.975Z,18.85
2022-11-18T02:03:07.457Z,18.86
2022-11-18T02:06:02.401Z,18.86
2022-11-18T02:08:57.296Z,18.86
2022-11-18T02:11:55.309Z,18.86
2022-11-18T02:14:51.075Z,18.85
2022-11-18T02:17:53.133Z,18.85
2022-11-18T02:20:48.017Z,18.85
2022-11-18T02:24:10.350Z,18.85
2022-11-18T02:27:48.073Z,18.85
2022-11-18T02:30:46.653Z,18.85
2022-11-18T02:33:48.714Z,18.85
2022-11-18T02:36:47.859Z,18.85
2022-11-18T02:39:46.707Z,18.85
2022-11-18T02:42:41.295Z,18.85
2022-11-18T02:45:36.205Z,18.85
2022-11-18T02:48:31.639Z,18.85
2022-11-18T02:51:28.402Z,18.85
2022-11-18T02:54:23.130Z,18.85
2022-11-18T02:57:18.014Z,18.86
2022-11-18T03:00:15.400Z,18.86
2022-11-18T03:03:28.372Z,18.86
2022-11-18T03:06:31.717Z,18.86
2022-11-18T03:09:29.022Z,18.86
2022-11-18T03:12:35.570Z,18.86
2022-11-18T03:15:36.365Z,18.86
2022-11-18T03:18:34.381Z,18.85
2022-11-18T03:21:32.733Z,18.84
2022-11-18T03:24:29.996Z,18.84
2022-11-18T03:27:27.543Z,18.85
2022-11-18T03:30:23.683Z,18.84
2022-11-18T03:33:23.279Z,18.84
2022-11-18T03:36:18.592Z,18.84
2022-11-18T03:39:13.471Z,18.84
2022-11-18T03:42:10.167Z,18.83
2022-11-18T03:45:07.284Z,18.83
2022-11-18T03:48:04.885Z,18.82
2022-11-18T03:51:01.162Z,18.82
2022-11-18T03:53:55.397Z,18.82
2022-11-18T03:56:53.989Z,18.81
2022-11-18T03:59:52.030Z,18.80
2022-11-18T04:02:46.458Z,18.79
2022-11-18T04:05:44.164Z,18.79
2022-11-18T04:08:41.157Z,18.79
2022-11-18T04:11:54.525Z,18.78
2022-11-18T04:14:50.079Z,18.77
2022-11-18T04:17:45.377Z,18.77
2022-11-18T04:20:39.932Z,18.76
2022-11-18T04:23:34.352Z,18.77
2022-11-18T04:26:28.752Z,18.77
2022-11-18T04:29:23.194Z,18.76
2022-11-18T04:32:17.642Z,18.76
2022-11-18T04:35:12.480Z,18.76
2022-11-18T04:38:06.907Z,18.76
2022-11-18T04:41:01.345Z,18.76
2022-11-18T04:43:55.806Z,18.77
2022-11-18T04:46:50.275Z,18.76
2022-11-18T04:49:44.698Z,18.77
2022-11-18T04:52:39.114Z,18.77
2022-11-18T04:55:33.588Z,18.77
2022-11-18T04:58:28.072Z,18.77
2022-11-18T05:01:22.627Z,18.76
2022-11-18T05:04:18.491Z,18.76
2022-11-18T05:07:16.590Z,18.75
2022-11-18T05:10:12.836Z,18.74
2022-11-18T05:13:07.704Z,18.75
2022-11-18T05:16:05.807Z,18.74
2022-11-18T05:19:00.282Z,18.74
2022-11-18T05:21:54.838Z,18.74
2022-11-18T05:24:49.290Z,18.74
2022-11-18T05:27:44.094Z,18.73
2022-11-18T05:30:38.569Z,18.73
2022-11-18T05:33:33.086Z,18.72
2022-11-18T05:36:27.921Z,18.72
2022-11-18T05:39:23.213Z,18.71
2022-11-18T05:42:35.337Z,18.70
2022-11-18T05:45:29.782Z,18.70
2022-11-18T05:48:24.160Z,18.69
2022-11-18T05:51:18.584Z,18.69
2022-11-18T05:54:13.536Z,18.69
2022-11-18T05:57:08.121Z,18.68
2022-11-18T06:00:02.596Z,18.68
2022-11-18T06:03:07.953Z,18.67
2022-11-18T06:06:03.436Z,18.66
2022-11-18T06:09:01.226Z,18.66
2022-11-18T06:11:58.115Z,18.66
2022-11-18T06:14:54.497Z,18.65
2022-11-18T06:17:51.784Z,18.65
2022-11-18T06:20:46.240Z,18.64
2022-11-18T06:23:42.032Z,18.64
2022-11-18T06:26:36.534Z,18.64
2022-11-18T06:29:31.196Z,18.64
2022-11-18T06:32:25.867Z,18.64
2022-11-18T06:35:20.427Z,18.63
2022-11-18T06:38:15.313Z,18.63
2022-11-18T06:41:09.956Z,18.62
2022-11-18T06:44:04.914Z,18.62
2022-11-18T06:46:59.641Z,18.62
2022-11-18T06:49:54.066Z,18.62
2022-11-18T06:52:48.514Z,18.62
2022-11-18T06:55:43.109Z,18.62
2022-11-18T06:58:37.692Z,18.63
2022-11-18T07:01:33.955Z,18.63
2022-11-18T07:04:28.938Z,18.63
2022-11-18T07:07:23.476Z,18.64
2022-11-18T07:10:18.602Z,18.65
2022-11-18T07:13:13.084Z,18.66
2022-11-18T07:16:09.841Z,18.66
2022-11-18T07:19:08.729Z,18.66
2022-11-18T07:22:03.236Z,18.66
2022-11-18T07:24:57.744Z,18.67
2022-11-18T07:27:52.638Z,18.67
2022-11-18T07:30:47.160Z,18.67
2022-11-18T07:33:42.242Z,18.67
2022-11-18T07:36:36.727Z,18.67
2022-11-18T07:39:31.230Z,18.67
2022-11-18T07:42:25.688Z,18.67
2022-11-18T07:45:20.237Z,18.67
2022-11-18T07:48:14.700Z,18.66
2022-11-18T07:51:09.565Z,18.66
2022-11-18T07:54:06.568Z,18.67
2022-11-18T07:57:01.097Z,18.67
2022-11-18T07:59:55.515Z,18.68
2022-11-18T08:02:52.577Z,18.69
2022-11-18T08:05:47.090Z,18.68
2022-11-18T08:08:42.193Z,18.68
2022-11-18T08:11:36.724Z,18.69
2022-11-18T08:14:31.308Z,18.70
2022-11-18T08:17:25.915Z,18.71
2022-11-18T08:20:20.924Z,18.72
2022-11-18T08:23:15.902Z,18.73
2022-11-18T08:26:12.216Z,18.74
2022-11-18T08:29:06.789Z,18.76
2022-11-18T08:32:01.221Z,18.77
2022-11-18T08:34:56.434Z,18.78
2022-11-18T08:37:50.987Z,18.79
2022-11-18T08:40:46.448Z,18.80
2022-11-18T08:43:41.038Z,18.81
2022-11-18T08:46:38.070Z,18.82
2022-11-18T08:49:32.789Z,18.83
2022-11-18T08:52:27.442Z,18.83
2022-11-18T08:55:22.515Z,18.84
2022-11-18T08:58:17.042Z,18.86
2022-11-18T09:01:11.837Z,18.86
2022-11-18T09:04:06.892Z,18.87
2022-11-18T09:07:01.909Z,18.88
2022-11-18T09:09:56.442Z,18.89
2022-11-18T09:12:51.172Z,18.91
2022-11-18T09:15:45.709Z,18.91
2022-11-18T09:18:43.022Z,18.93
2022-11-18T09:21:40.839Z,18.94
2022-11-18T09:24:36.850Z,18.95
2022-11-18T09:27:31.367Z,18.96
2022-11-18T09:30:27.157Z,18.98
2022-11-18T09:33:21.688Z,18.99
2022-11-18T09:36:18.675Z,19.00
2022-11-18T09:39:13.301Z,19.01
2022-11-18T09:42:29.643Z,19.02
2022-11-18T09:45:28.821Z,19.03
2022-11-18T09:48:46.133Z,19.05
2022-11-18T09:51:44.058Z,19.05
2022-11-18T09:54:40.122Z,19.07
2022-11-18T09:57:39.625Z,19.08
2022-11-18T10:00:34.808Z,19.08
2022-11-18T10:03:31.809Z,19.09
2022-11-18T10:06:30.090Z,19.10
2022-11-18T10:09:37.941Z,19.11
2022-11-18T10:12:37.203Z,19.11
2022-11-18T10:15:37.678Z,19.12
2022-11-18T10:18:59.220Z,19.13
2022-11-18T10:22:01.247Z,19.13
2022-11-18T10:24:57.101Z,19.14
2022-11-18T10:27:52.403Z,19.14
2022-11-18T10:30:47.380Z,19.14
2022-11-18T10:33:41.917Z,19.14
2022-11-18T10:36:38.201Z,19.15
2022-11-18T10:39:31.137Z,19.16
2022-11-18T10:42:30.994Z,19.16
2022-11-18T10:45:31.516Z,19.17
2022-11-18T10:48:26.533Z,19.17
2022-11-18T10:51:27.090Z,19.18
2022-11-18T10:54:23.579Z,19.18
2022-11-18T10:57:23.998Z,19.18
2022-11-18T11:00:52.049Z,19.18
2022-11-18T11:03:52.698Z,19.19
2022-11-18T11:06:47.227Z,19.19
2022-11-18T11:09:41.742Z,19.20
2022-11-18T11:12:37.582Z,19.19
2022-11-18T11:15:36.678Z,19.19
2022-11-18T11:18:45.218Z,19.18
2022-11-18T11:21:39.715Z,19.19
2022-11-18T11:24:34.204Z,19.18
2022-11-18T11:31:14.453Z,19.20
2022-11-18T11:34:17.194Z,19.19
2022-11-18T11:37:19.215Z,19.20
2022-11-18T11:40:32.014Z,19.19
2022-11-18T11:43:39.544Z,19.20
2022-11-18T11:46:41.990Z,19.21
2022-11-18T11:49:45.037Z,19.21
2022-11-18T11:52:44.875Z,19.21
2022-11-18T11:55:50.040Z,19.22
2022-11-18T11:59:18.730Z,19.22
2022-11-18T12:02:30.847Z,19.21
2022-11-18T12:05:31.134Z,19.22
2022-11-18T12:08:27.362Z,19.22
2022-11-18T12:11:26.267Z,19.24
2022-11-18T12:14:30.309Z,19.24
2022-11-18T12:17:27.176Z,19.24
2022-11-18T12:20:45.072Z,19.24
2022-11-18T12:23:40.023Z,19.24
2022-11-18T12:26:39.223Z,19.24
2022-11-18T12:29:54.291Z,19.24
2022-11-18T12:32:48.867Z,19.25
2022-11-18T12:35:43.494Z,19.25
2022-11-18T12:38:38.060Z,19.25
2022-11-18T12:42:23.603Z,19.25
2022-11-18T12:46:00.366Z,19.25
2022-11-18T12:48:54.825Z,19.26
2022-11-18T12:51:49.308Z,19.26
2022-11-18T12:54:47.177Z,19.26
2022-11-18T12:57:43.536Z,19.26
2022-11-18T13:04:29.530Z,19.29
2022-11-18T13:07:38.653Z,19.28
2022-11-18T13:10:32.257Z,19.28
2022-11-18T13:13:27.459Z,19.28
2022-11-18T13:16:40.244Z,19.29
2022-11-18T13:19:31.184Z,19.29
2022-11-18T13:22:42.592Z,19.29
2022-11-18T13:25:33.308Z,19.29
2022-11-18T13:28:28.146Z,19.30
2022-11-18T13:31:22.378Z,19.29
2022-11-18T13:34:17.887Z,19.29
2022-11-18T13:37:18.988Z,19.30
2022-11-18T13:40:21.953Z,19.30
2022-11-18T13:43:13.455Z,19.31
2022-11-18T13:46:06.641Z,19.32
2022-11-18T13:48:58.284Z,19.32
2022-11-18T13:51:48.898Z,19.33
2022-11-18T13:54:39.396Z,19.34
2022-11-18T13:57:29.995Z,19.34
2022-11-18T14:00:25.884Z,19.35
2022-11-18T14:03:24.536Z,19.35
2022-11-18T14:06:25.533Z,19.36
2022-11-18T14:09:24.307Z,19.38
2022-11-18T14:12:24.660Z,19.39
2022-11-18T14:15:21.235Z,19.40
2022-11-18T14:18:20.600Z,19.41
2022-11-18T14:21:13.606Z,19.42
2022-11-18T14:24:05.630Z,19.44
2022-11-18T14:26:56.124Z,19.46
2022-11-18T14:29:51.944Z,19.45
2022-11-18T14:32:42.549Z,19.46
2022-11-18T14:35:34.855Z,19.48
2022-11-18T14:38:51.976Z,19.49
2022-11-18T14:41:48.406Z,19.50
2022-11-18T14:44:39.024Z,19.50
2022-11-18T14:47:31.630Z,19.52
2022-11-18T14:50:22.148Z,19.53
2022-11-18T14:53:13.671Z,19.54
2022-11-18T14:56:08.464Z,19.55
2022-11-18T14:58:59.569Z,19.56
2022-11-18T15:01:50.396Z,19.58
2022-11-18T15:04:41.287Z,19.57
2022-11-18T15:07:33.237Z,19.58
2022-11-18T15:10:23.840Z,19.59
2022-11-18T15:13:14.711Z,19.59
2022-11-18T15:16:14.586Z,19.60
2022-11-18T15:19:06.601Z,19.61
2022-11-18T15:21:57.325Z,19.62
2022-11-18T15:24:47.907Z,19.62
2022-11-18T15:27:38.535Z,19.62
2022-11-18T15:30:29.323Z,19.62
2022-11-18T15:33:20.040Z,19.62
2022-11-18T15:36:14.346Z,19.62
2022-11-18T15:39:05.236Z,19.61
2022-11-18T15:41:55.826Z,19.60
2022-11-18T15:44:46.564Z,19.61
2022-11-18T15:47:37.151Z,19.60
2022-11-18T15:50:27.661Z,19.59
2022-11-18T15:53:18.247Z,19.59
2022-11-18T15:56:28.046Z,19.58
2022-11-18T15:59:18.870Z,19.58
2022-11-18T16:02:11.500Z,19.58
2022-11-18T16:05:01.988Z,19.58
2022-11-18T16:07:55.011Z,19.58
2022-11-18T16:11:15.806Z,19.58
2022-11-18T16:14:07.162Z,19.58
2022-11-18T16:16:57.700Z,19.58
2022-11-18T16:19:48.224Z,19.59
2022-11-18T16:22:38.773Z,19.58
2022-11-18T16:25:29.452Z,19.58
2022-11-18T16:28:20.007Z,19.58
2022-11-18T16:31:29.346Z,19.58
2022-11-18T16:34:21.467Z,19.59
2022-11-18T16:37:12.015Z,19.57
2022-11-18T16:40:02.573Z,19.57
2022-11-18T16:42:53.179Z,19.57
2022-11-18T16:45:52.205Z,19.55
2022-11-18T16:48:42.729Z,19.55
2022-11-18T16:51:33.943Z,19.56
2022-11-18T16:54:25.723Z,19.56
2022-11-18T16:57:16.701Z,19.56
2022-11-18T17:00:11.941Z,19.55
2022-11-18T17:03:03.721Z,19.54
2022-11-18T17:05:54.253Z,19.54
2022-11-18T17:08:44.732Z,19.54
2022-11-18T17:11:35.299Z,19.54
2022-11-18T17:14:26.017Z,19.53
2022-11-18T17:17:16.603Z,19.53
2022-11-18T17:20:09.620Z,19.53
2022-11-18T17:23:00.142Z,19.53
2022-11-18T17:25:50.692Z,19.52
2022-11-18T17:28:41.209Z,19.52
2022-11-18T17:31:31.953Z,19.52
2022-11-18T17:34:22.554Z,19.51
2022-11-18T17:37:13.427Z,19.50
2022-11-18T17:40:04.788Z,19.49
2022-11-18T17:42:55.439Z,19.49
2022-11-18T17:45:49.476Z,19.49
2022-11-18T17:48:40.138Z,19.49
2022-11-18T17:51:31.008Z,19.49
2022-11-18T17:54:21.981Z,19.50
2022-11-18T17:57:12.819Z,19.50
2022-11-18T18:00:04.504Z,19.50
2022-11-18T18:02:58.098Z,19.50
2022-11-18T18:05:48.537Z,19.50
2022-11-18T18:08:39.116Z,19.50
2022-11-18T18:11:29.741Z,19.50
2022-11-18T18:14:21.281Z,19.50
2022-11-18T18:17:12.271Z,19.50
2022-11-18T18:20:02.994Z,19.50
2022-11-18T18:22:54.880Z,19.50
2022-11-18T18:25:45.455Z,19.50
2022-11-18T18:28:36.425Z,19.50
2022-11-18T18:31:27.410Z,19.50
2022-11-18T18:34:18.703Z,19.50
2022-11-18T18:37:10.121Z,19.51
2022-11-18T18:40:01.413Z,19.51
2022-11-18T18:42:52.010Z,19.51
2022-11-18T18:46:01.193Z,19.50
2022-11-18T18:48:51.949Z,19.50
2022-11-18T18:51:44.705Z,19.50
2022-11-18T18:54:35.710Z,19.50
2022-11-18T18:57:26.328Z,19.49
2022-11-18T19:00:19.176Z,19.49
2022-11-18T19:03:09.740Z,19.49
2022-11-18T19:09:11.634Z,19.48
2022-11-18T19:12:20.327Z,19.47
2022-11-18T19:15:12.665Z,19.47
2022-11-18T19:18:03.522Z,19.47
2022-11-18T19:20:54.211Z,19.47
2022-11-18T19:23:44.834Z,19.47
2022-11-18T19:26:35.735Z,19.47
2022-11-18T19:29:26.338Z,19.47
2022-11-18T19:32:16.867Z,19.47
2022-11-18T19:35:08.375Z,19.46
2022-11-18T19:37:59.350Z,19.46
2022-11-18T19:40:49.975Z,19.45
2022-11-18T19:43:40.986Z,19.45
2022-11-18T19:46:31.887Z,19.44
2022-11-18T19:49:22.809Z,19.44
2022-11-18T19:52:13.562Z,19.44
2022-11-18T19:55:04.730Z,19.44
2022-11-18T19:57:55.435Z,19.44
2022-11-18T20:00:46.117Z,19.45
2022-11-18T20:03:36.665Z,19.44
2022-11-18T20:06:27.870Z,19.43
2022-11-18T20:09:18.756Z,19.42
2022-11-18T20:12:10.273Z,19.42
2022-11-18T20:15:00.800Z,19.42
2022-11-18T20:17:51.468Z,19.42
2022-11-18T20:20:42.260Z,19.42
2022-11-18T20:23:33.385Z,19.41
2022-11-18T20:26:25.069Z,19.41
2022-11-18T20:29:16.051Z,19.41
2022-11-18T20:32:07.657Z,19.41
2022-11-18T20:34:58.226Z,19.41
2022-11-18T20:37:48.812Z,19.41
2022-11-18T20:40:39.699Z,19.41
2022-11-18T20:43:33.411Z,19.40
2022-11-18T20:46:23.984Z,19.40
2022-11-18T20:49:14.583Z,19.40
2022-11-18T20:52:05.506Z,19.40
2022-11-18T20:54:58.201Z,19.40
2022-11-18T20:57:50.851Z,19.41
2022-11-18T21:00:41.672Z,19.41
2022-11-18T21:03:32.390Z,19.41
2022-11-18T21:06:23.919Z,19.41
2022-11-18T21:09:15.965Z,19.41
2022-11-18T21:12:07.114Z,19.41
2022-11-18T21:14:57.619Z,19.40
2022-11-18T21:17:48.623Z,19.40
2022-11-18T21:20:57.402Z,19.40
2022-11-18T21:23:48.067Z,19.40
2022-11-18T21:26:38.713Z,19.39
2022-11-18T21:29:30.209Z,19.39
2022-11-18T21:32:20.837Z,19.39
2022-11-18T21:35:11.984Z,19.39
2022-11-18T21:38:03.893Z,19.39
2022-11-18T21:40:54.520Z,19.39
2022-11-18T21:46:56.939Z,19.39
2022-11-18T21:49:47.519Z,19.39
2022-11-18T21:52:38.475Z,19.39
2022-11-18T21:55:29.406Z,19.39
2022-11-18T21:58:20.099Z,19.39
2022-11-18T22:01:13.744Z,19.39
2022-11-18T22:04:05.611Z,19.39
2022-11-18T22:06:56.405Z,19.39
2022-11-18T22:09:47.335Z,19.39
2022-11-18T22:12:38.004Z,19.39
2022-11-18T22:15:28.632Z,19.39
2022-11-18T22:18:19.433Z,19.39
2022-11-18T22:21:12.545Z,19.40
2022-11-18T22:24:03.220Z,19.40
2022-11-18T22:26:53.763Z,19.40
2022-11-18T22:29:44.452Z,19.41
2022-11-18T22:32:36.160Z,19.41
2022-11-18T22:35:27.052Z,19.42
2022-11-18T22:38:17.683Z,19.43
2022-11-18T22:41:31.534Z,19.43
2022-11-18T22:44:22.443Z,19.43
2022-11-18T22:47:13.292Z,19.43
2022-11-18T22:50:04.256Z,19.43
2022-11-18T22:52:54.819Z,19.44
2022-11-18T22:55:45.380Z,19.44
2022-11-18T22:58:36.347Z,19.43
2022-11-18T23:01:27.202Z,19.43
2022-11-18T23:04:18.099Z,19.42
2022-11-18T23:07:08.740Z,19.42
2022-11-18T23:09:59.876Z,19.41
2022-11-18T23:13:08.608Z,19.40
2022-11-18T23:15:59.816Z,19.40
2022-11-18T23:18:51.511Z,19.38
2022-11-18T23:21:42.061Z,19.37
2022-11-18T23:24:32.959Z,19.37
2022-11-18T23:27:23.678Z,19.36
2022-11-18T23:30:15.308Z,19.36
2022-11-18T23:33:06.499Z,19.35
2022-11-18T23:35:57.053Z,19.35
2022-11-18T23:38:49.818Z,19.34
2022-11-18T23:41:40.846Z,19.33
2022-11-18T23:44:46.619Z,19.33
2022-11-18T23:47:37.218Z,19.32
2022-11-18T23:50:27.780Z,19.32
2022-11-18T23:53:18.344Z,19.31
2022-11-18T23:56:10.416Z,19.30
2022-11-18T23:59:01.116Z,19.30
